createdAt,value
2018-03-20T00:00:49.130Z,12.30
2018-03-20T00:01:49.109Z,11.40
2018-03-20T00:02:49.124Z,11.10
2018-03-20T00:03:49.178Z,13.00
2018-03-20T00:04:49.127Z,11.80
2018-03-20T00:05:49.139Z,13.60
2018-03-20T00:06:49.159Z,15.40
2018-03-20T00:07:49.163Z,11.90
2018-03-20T00:08:49.173Z,12.50
2018-03-20T00:09:49.172Z,13.40
2018-03-20T00:10:49.243Z,13.90
2018-03-20T00:11:49.188Z,11.60
2018-03-20T00:12:49.218Z,13.40
2018-03-20T00:13:49.214Z,15.40
2018-03-20T00:14:49.223Z,15.10
2018-03-20T00:15:49.228Z,16.90
2018-03-20T00:16:49.239Z,16.50
2018-03-20T00:17:49.266Z,17.00
2018-03-20T00:18:49.264Z,22.80
2018-03-20T00:19:49.268Z,24.00
2018-03-20T00:20:49.267Z,20.70
2018-03-20T00:21:49.293Z,23.70
2018-03-20T00:22:49.300Z,24.20
2018-03-20T00:23:49.297Z,22.30
2018-03-20T00:24:49.303Z,23.80
2018-03-20T00:25:49.314Z,24.30
2018-03-20T00:26:49.316Z,24.90
2018-03-20T00:27:49.346Z,20.90
2018-03-20T00:28:49.343Z,23.40
2018-03-20T00:29:49.356Z,25.30
2018-03-20T00:30:49.353Z,21.60
2018-03-20T00:31:49.371Z,19.70
2018-03-20T00:32:49.373Z,19.10
2018-03-20T00:33:49.381Z,24.00
2018-03-20T00:34:49.409Z,20.50
2018-03-20T00:35:49.411Z,19.90
2018-03-20T00:36:49.440Z,23.60
2018-03-20T00:37:49.425Z,25.20
2018-03-20T00:38:49.440Z,18.80
2018-03-20T00:39:49.430Z,20.00
2018-03-20T00:40:49.437Z,18.40
2018-03-20T00:41:49.470Z,18.70
2018-03-20T00:42:49.457Z,19.10
2018-03-20T00:43:49.471Z,19.70
2018-03-20T00:44:49.471Z,20.30
2018-03-20T00:45:49.492Z,19.10
2018-03-20T00:46:49.490Z,18.50
2018-03-20T00:47:49.525Z,20.20
2018-03-20T00:48:49.532Z,19.10
2018-03-20T00:49:49.528Z,19.60
2018-03-20T00:50:49.525Z,18.60
2018-03-20T00:51:49.547Z,17.10
2018-03-20T00:52:49.577Z,19.80
2018-03-20T00:53:49.562Z,18.20
2018-03-20T00:54:49.562Z,18.20
2018-03-20T00:55:49.591Z,18.70
2018-03-20T00:56:49.604Z,17.00
2018-03-20T00:57:49.627Z,17.10
2018-03-20T00:58:49.590Z,18.80
2018-03-20T00:59:49.603Z,15.90
2018-03-20T01:00:49.639Z,15.00
2018-03-20T01:01:49.647Z,14.50
2018-03-20T01:02:49.632Z,14.30
2018-03-20T01:03:49.639Z,13.20
2018-03-20T01:04:49.668Z,13.80
2018-03-20T01:05:49.660Z,15.50
2018-03-20T01:06:49.677Z,13.70
2018-03-20T01:07:49.686Z,11.70
2018-03-20T01:08:49.679Z,13.00
2018-03-20T01:09:49.687Z,11.80
2018-03-20T01:10:49.729Z,11.60
2018-03-20T01:11:49.743Z,12.40
2018-03-20T01:12:49.720Z,14.40
2018-03-20T01:13:49.746Z,15.90
2018-03-20T01:14:49.727Z,21.40
2018-03-20T01:15:49.824Z,13.30
2018-03-20T01:16:49.759Z,15.70
2018-03-20T01:17:49.774Z,12.70
2018-03-20T01:18:49.781Z,12.60
2018-03-20T01:19:49.808Z,13.20
2018-03-20T01:20:49.784Z,14.50
2018-03-20T01:21:49.787Z,13.70
2018-03-20T01:22:49.797Z,16.30
2018-03-20T01:23:49.824Z,13.50
2018-03-20T01:24:49.820Z,12.10
2018-03-20T01:25:49.841Z,13.10
2018-03-20T01:26:49.863Z,11.20
2018-03-20T01:27:49.851Z,12.70
2018-03-20T01:28:49.855Z,14.10
2018-03-20T01:29:49.864Z,14.60
2018-03-20T01:30:49.866Z,13.00
2018-03-20T01:31:49.885Z,12.60
2018-03-20T01:32:49.892Z,12.50
2018-03-20T01:33:49.916Z,12.10
2018-03-20T01:34:49.900Z,11.80
2018-03-20T01:35:49.933Z,10.40
2018-03-20T01:36:49.931Z,12.20
2018-03-20T01:37:49.932Z,12.90
2018-03-20T01:38:49.939Z,12.10
2018-03-20T01:39:49.956Z,12.30
2018-03-20T01:40:49.951Z,12.60
2018-03-20T01:41:49.962Z,14.90
2018-03-20T01:42:50.094Z,12.60
2018-03-20T01:43:49.976Z,12.10
2018-03-20T01:44:50.009Z,12.20
2018-03-20T01:45:50.009Z,17.00
2018-03-20T01:46:50.010Z,10.70
2018-03-20T01:47:50.016Z,12.50
2018-03-20T01:48:50.017Z,11.80
2018-03-20T01:49:50.032Z,15.10
2018-03-20T01:50:50.045Z,15.50
2018-03-20T01:51:50.058Z,14.00
2018-03-20T01:52:50.060Z,12.90
2018-03-20T01:53:50.075Z,11.70
2018-03-20T01:54:50.094Z,13.00
2018-03-20T01:55:50.079Z,11.30
2018-03-20T01:56:50.135Z,12.20
2018-03-20T01:57:50.149Z,11.40
2018-03-20T01:58:50.106Z,15.30
2018-03-20T01:59:50.122Z,16.60
2018-03-20T02:00:50.181Z,19.10
2018-03-20T02:01:50.162Z,16.00
2018-03-20T02:02:50.141Z,15.20
2018-03-20T02:03:50.156Z,13.70
2018-03-20T02:04:50.157Z,13.50
2018-03-20T02:05:50.182Z,13.50
2018-03-20T02:06:50.176Z,11.80
2018-03-20T02:07:50.189Z,14.30
2018-03-20T02:08:50.244Z,14.30
2018-03-20T02:09:50.215Z,14.20
2018-03-20T02:10:50.230Z,15.70
2018-03-20T02:11:50.290Z,16.30
2018-03-20T02:12:50.253Z,17.80
2018-03-20T02:13:50.232Z,13.20
2018-03-20T02:14:50.238Z,15.80
2018-03-20T02:15:50.258Z,14.30
2018-03-20T02:16:50.261Z,15.40
2018-03-20T02:17:50.277Z,17.10
2018-03-20T02:18:50.283Z,18.50
2018-03-20T02:19:50.282Z,15.40
2018-03-20T02:20:50.301Z,17.80
2018-03-20T02:21:50.301Z,16.60
2018-03-20T02:22:50.338Z,17.30
2018-03-20T02:23:50.339Z,14.10
2018-03-20T02:24:50.342Z,15.20
2018-03-20T02:25:50.345Z,16.70
2018-03-20T02:26:50.398Z,15.50
2018-03-20T02:27:50.375Z,13.50
2018-03-20T02:28:50.392Z,15.60
2018-03-20T02:29:50.378Z,13.40
2018-03-20T02:30:50.393Z,15.50
2018-03-20T02:31:50.400Z,16.00
2018-03-20T02:32:50.423Z,14.10
2018-03-20T02:33:50.470Z,14.30
2018-03-20T02:34:50.429Z,15.90
2018-03-20T02:35:50.460Z,12.20
2018-03-20T02:36:50.449Z,11.80
2018-03-20T02:37:50.485Z,13.90
2018-03-20T02:38:50.483Z,12.20
2018-03-20T02:39:50.519Z,13.50
2018-03-20T02:40:50.475Z,13.60
2018-03-20T02:41:50.513Z,14.80
2018-03-20T02:42:50.519Z,11.00
2018-03-20T02:43:50.518Z,14.50
2018-03-20T02:44:50.528Z,14.80
2018-03-20T02:45:50.529Z,14.10
2018-03-20T02:46:50.560Z,14.40
2018-03-20T02:47:50.553Z,12.40
2018-03-20T02:48:50.569Z,13.40
2018-03-20T02:49:50.606Z,15.70
2018-03-20T02:50:50.607Z,12.40
2018-03-20T02:51:50.593Z,11.80
2018-03-20T02:52:50.608Z,12.60
2018-03-20T02:53:50.611Z,15.40
2018-03-20T02:54:50.619Z,11.40
2018-03-20T02:55:50.648Z,15.70
2018-03-20T02:56:50.646Z,11.60
2018-03-20T02:57:50.656Z,11.90
2018-03-20T02:58:50.669Z,11.70
2018-03-20T02:59:50.694Z,11.90
2018-03-20T03:00:50.704Z,13.70
2018-03-20T03:01:50.692Z,14.20
2018-03-20T03:02:50.722Z,14.10
2018-03-20T03:03:50.724Z,13.00
2018-03-20T03:04:50.736Z,11.10
2018-03-20T03:05:50.740Z,13.70
2018-03-20T03:06:50.770Z,12.60
2018-03-20T03:07:50.770Z,15.30
2018-03-20T03:08:50.786Z,15.80
2018-03-20T03:09:50.774Z,13.90
2018-03-20T03:10:50.778Z,13.20
2018-03-20T03:11:50.804Z,12.10
2018-03-20T03:12:50.809Z,15.60
2018-03-20T03:13:50.806Z,13.60
2018-03-20T03:14:50.830Z,13.60
2018-03-20T03:15:50.863Z,12.80
2018-03-20T03:16:50.856Z,12.30
2018-03-20T03:17:50.850Z,13.60
2018-03-20T03:18:50.887Z,15.80
2018-03-20T03:19:50.875Z,14.50
2018-03-20T03:20:50.882Z,11.60
2018-03-20T03:21:50.914Z,11.30
2018-03-20T03:22:50.917Z,14.60
2018-03-20T03:23:50.931Z,13.30
2018-03-20T03:24:50.943Z,10.90
2018-03-20T03:25:50.942Z,14.30
2018-03-20T03:26:50.944Z,12.90
2018-03-20T03:27:50.983Z,13.00
2018-03-20T03:28:50.966Z,14.20
2018-03-20T03:29:51.004Z,15.50
2018-03-20T03:30:51.009Z,11.50
2018-03-20T03:31:51.004Z,12.70
2018-03-20T03:32:51.005Z,10.20
2018-03-20T03:33:51.095Z,12.20
2018-03-20T03:34:51.061Z,15.60
2018-03-20T03:35:51.057Z,12.40
2018-03-20T03:36:51.051Z,13.10
2018-03-20T03:37:51.075Z,12.60
2018-03-20T03:38:51.124Z,12.00
2018-03-20T03:39:51.087Z,13.20
2018-03-20T03:40:51.100Z,16.40
2018-03-20T03:41:51.135Z,12.00
2018-03-20T03:42:51.120Z,13.40
2018-03-20T03:43:51.139Z,11.80
2018-03-20T03:44:51.132Z,15.40
2018-03-20T03:45:51.158Z,13.10
2018-03-20T03:46:51.162Z,13.30
2018-03-20T03:47:51.180Z,12.70
2018-03-20T03:48:51.192Z,11.60
2018-03-20T03:49:51.197Z,13.70
2018-03-20T03:50:51.270Z,13.80
2018-03-20T03:51:51.218Z,13.20
2018-03-20T03:52:51.249Z,11.90
2018-03-20T03:53:51.267Z,13.30
2018-03-20T03:54:51.276Z,11.10
2018-03-20T03:55:51.256Z,11.50
2018-03-20T03:56:51.285Z,14.50
2018-03-20T03:57:51.280Z,13.60
2018-03-20T03:58:51.286Z,13.60
2018-03-20T03:59:51.303Z,13.30
2018-03-20T04:00:51.308Z,13.80
2018-03-20T04:01:51.331Z,15.80
2018-03-20T04:02:51.340Z,12.20
2018-03-20T04:03:51.337Z,13.30
2018-03-20T04:04:51.351Z,14.50
2018-03-20T04:05:51.383Z,13.80
2018-03-20T04:06:51.372Z,14.80
2018-03-20T04:07:51.498Z,14.60
2018-03-20T04:08:51.392Z,11.80
2018-03-20T04:09:51.425Z,13.70
2018-03-20T04:10:51.422Z,13.40
2018-03-20T04:11:51.430Z,11.20
2018-03-20T04:12:51.444Z,12.30
2018-03-20T04:13:51.469Z,16.10
2018-03-20T04:14:51.477Z,13.20
2018-03-20T04:15:51.479Z,13.10
2018-03-20T04:16:51.502Z,16.20
2018-03-20T04:17:51.502Z,11.80
2018-03-20T04:18:51.513Z,12.40
2018-03-20T04:19:51.532Z,14.00
2018-03-20T04:20:51.522Z,12.90
2018-03-20T04:21:51.537Z,11.60
2018-03-20T04:22:51.545Z,14.00
2018-03-20T04:23:51.563Z,12.70
2018-03-20T04:24:51.573Z,13.40
2018-03-20T04:25:51.602Z,14.60
2018-03-20T04:26:51.598Z,14.00
2018-03-20T04:27:51.604Z,12.10
2018-03-20T04:28:51.613Z,13.80
2018-03-20T04:29:51.658Z,14.70
2018-03-20T04:30:51.643Z,14.50
2018-03-20T04:31:51.643Z,15.50
2018-03-20T04:32:51.652Z,14.30
2018-03-20T04:33:51.658Z,15.90
2018-03-20T04:34:51.698Z,14.00
2018-03-20T04:35:51.686Z,18.60
2018-03-20T04:36:51.696Z,20.60
2018-03-20T04:37:51.715Z,17.20
2018-03-20T04:38:51.723Z,20.50
2018-03-20T04:39:51.763Z,21.80
2018-03-20T04:40:51.751Z,16.80
2018-03-20T04:41:51.818Z,16.60
2018-03-20T04:42:51.770Z,20.80
2018-03-20T04:43:51.774Z,19.40
2018-03-20T04:44:51.808Z,19.50
2018-03-20T04:45:51.809Z,18.10
2018-03-20T04:46:51.812Z,18.70
2018-03-20T04:47:51.842Z,16.90
2018-03-20T04:48:51.830Z,19.70
2018-03-20T04:49:51.850Z,19.40
2018-03-20T04:50:51.848Z,20.80
2018-03-20T04:51:51.879Z,19.40
2018-03-20T04:52:51.871Z,19.40
2018-03-20T04:53:51.916Z,20.90
2018-03-20T04:54:51.910Z,19.10
2018-03-20T04:55:51.915Z,26.40
2018-03-20T04:56:51.915Z,59.20
2018-03-20T04:57:51.928Z,67.10
2018-03-20T04:58:51.951Z,152.20
2018-03-20T04:59:51.953Z,236.20
2018-03-20T05:00:51.959Z,162.50
2018-03-20T05:01:51.981Z,74.30
2018-03-20T05:02:51.979Z,88.00
2018-03-20T05:03:51.998Z,61.00
2018-03-20T05:04:52.034Z,60.10
2018-03-20T05:05:52.030Z,30.00
2018-03-20T05:06:52.050Z,15.90
2018-03-20T05:07:52.052Z,15.90
2018-03-20T05:08:52.042Z,15.40
2018-03-20T05:09:52.063Z,17.20
2018-03-20T05:10:52.088Z,19.20
2018-03-20T05:11:52.109Z,18.70
2018-03-20T05:12:52.118Z,18.70
2018-03-20T05:13:52.119Z,19.90
2018-03-20T05:14:52.115Z,18.50
2018-03-20T05:15:52.134Z,18.00
2018-03-20T05:16:52.142Z,20.10
2018-03-20T05:17:52.146Z,17.50
2018-03-20T05:18:52.157Z,16.30
2018-03-20T05:19:52.165Z,17.30
2018-03-20T05:20:52.178Z,19.30
2018-03-20T05:21:52.209Z,19.00
2018-03-20T05:22:52.201Z,19.00
2018-03-20T05:23:52.275Z,19.00
2018-03-20T05:24:52.225Z,20.90
2018-03-20T05:25:52.234Z,17.50
2018-03-20T05:26:52.252Z,18.70
2018-03-20T05:27:52.269Z,18.20
2018-03-20T05:28:52.321Z,18.70
2018-03-20T05:29:52.281Z,18.90
2018-03-20T05:30:52.292Z,18.80
2018-03-20T05:31:52.293Z,18.70
2018-03-20T05:32:52.298Z,17.40
2018-03-20T05:33:52.321Z,20.50
2018-03-20T05:34:52.333Z,15.80
2018-03-20T05:35:52.341Z,17.50
2018-03-20T05:36:52.354Z,22.30
2018-03-20T05:37:52.351Z,20.20
2018-03-20T05:38:52.374Z,18.20
2018-03-20T05:39:52.373Z,17.80
2018-03-20T05:40:52.386Z,19.10
2018-03-20T05:41:52.398Z,19.20
2018-03-20T05:42:52.409Z,19.80
2018-03-20T05:43:52.418Z,20.20
2018-03-20T05:44:52.425Z,21.20
2018-03-20T05:45:52.450Z,19.80
2018-03-20T05:46:52.460Z,21.20
2018-03-20T05:47:52.458Z,24.70
2018-03-20T05:48:52.487Z,20.00
2018-03-20T05:49:52.478Z,20.70
2018-03-20T05:50:52.500Z,25.50
2018-03-20T05:51:52.513Z,20.00
2018-03-20T05:52:52.522Z,19.80
2018-03-20T05:53:52.518Z,17.10
2018-03-20T05:54:52.533Z,19.80
2018-03-20T05:55:52.542Z,21.10
2018-03-20T05:56:52.568Z,18.10
2018-03-20T05:57:52.607Z,16.70
2018-03-20T05:58:52.580Z,18.40
2018-03-20T05:59:52.600Z,17.70
2018-03-20T06:00:52.602Z,16.90
2018-03-20T06:01:52.625Z,17.90
2018-03-20T06:02:52.640Z,20.00
2018-03-20T06:03:52.629Z,21.40
2018-03-20T06:04:52.631Z,18.90
2018-03-20T06:05:52.643Z,17.70
2018-03-20T06:06:52.651Z,20.80
2018-03-20T06:07:52.679Z,17.90
2018-03-20T06:08:52.697Z,20.00
2018-03-20T06:09:52.694Z,20.60
2018-03-20T06:10:52.707Z,19.80
2018-03-20T06:11:52.740Z,22.10
2018-03-20T06:12:52.728Z,18.40
2018-03-20T06:13:52.746Z,20.60
2018-03-20T06:14:52.753Z,20.50
2018-03-20T06:15:52.755Z,18.00
2018-03-20T06:16:52.766Z,19.60
2018-03-20T06:17:52.779Z,19.40
2018-03-20T06:18:52.807Z,20.00
2018-03-20T06:19:52.802Z,32.10
2018-03-20T06:20:52.828Z,22.90
2018-03-20T06:21:52.877Z,19.70
2018-03-20T06:22:52.830Z,22.30
2018-03-20T06:23:52.863Z,25.00
2018-03-20T06:24:52.891Z,25.30
2018-03-20T06:25:52.873Z,22.10
2018-03-20T06:26:52.874Z,21.70
2018-03-20T06:27:52.894Z,24.60
2018-03-20T06:28:52.912Z,22.00
2018-03-20T06:29:52.906Z,25.00
2018-03-20T06:30:52.959Z,28.40
2018-03-20T06:31:52.930Z,23.90
2018-03-20T06:32:52.946Z,29.10
2018-03-20T06:33:52.980Z,34.40
2018-03-20T06:34:52.962Z,32.50
2018-03-20T06:35:52.976Z,28.30
2018-03-20T06:36:52.980Z,25.90
2018-03-20T06:37:52.996Z,27.20
2018-03-20T06:38:53.007Z,30.10
2018-03-20T06:39:53.028Z,30.90
2018-03-20T06:40:53.037Z,25.50
2018-03-20T06:41:53.036Z,28.10
2018-03-20T06:42:53.059Z,33.00
2018-03-20T06:43:53.060Z,31.10
2018-03-20T06:44:53.079Z,28.00
2018-03-20T06:45:53.108Z,29.30
2018-03-20T06:46:53.121Z,30.10
2018-03-20T06:47:53.117Z,30.80
2018-03-20T06:48:53.121Z,28.40
2018-03-20T06:49:53.126Z,33.10
2018-03-20T06:50:53.142Z,30.40
2018-03-20T06:51:53.155Z,30.90
2018-03-20T06:52:53.193Z,30.20
2018-03-20T06:53:53.180Z,36.00
2018-03-20T06:54:53.198Z,33.60
2018-03-20T06:55:53.212Z,35.50
2018-03-20T06:56:53.209Z,32.80
2018-03-20T06:57:53.244Z,34.30
2018-03-20T06:58:53.234Z,39.00
2018-03-20T06:59:53.247Z,30.20
2018-03-20T07:00:53.274Z,33.70
2018-03-20T07:01:53.269Z,32.00
2018-03-20T07:02:53.294Z,35.90
2018-03-20T07:03:53.300Z,28.60
2018-03-20T07:04:53.322Z,33.30
2018-03-20T07:05:53.318Z,32.40
2018-03-20T07:06:53.333Z,35.50
2018-03-20T07:07:53.336Z,28.60
2018-03-20T07:08:53.350Z,27.50
2018-03-20T07:09:53.366Z,31.80
2018-03-20T07:10:53.383Z,32.30
2018-03-20T07:11:53.390Z,28.70
2018-03-20T07:12:53.396Z,29.40
2018-03-20T07:13:53.480Z,34.80
2018-03-20T07:14:53.433Z,31.20
2018-03-20T07:15:53.433Z,28.70
2018-03-20T07:16:53.453Z,32.00
2018-03-20T07:17:53.495Z,30.60
2018-03-20T07:18:53.477Z,29.70
2018-03-20T07:19:53.521Z,25.60
2018-03-20T07:20:53.514Z,29.70
2018-03-20T07:21:53.502Z,33.20
2018-03-20T07:22:53.585Z,26.80
2018-03-20T07:23:53.531Z,30.60
2018-03-20T07:24:53.546Z,26.90
2018-03-20T07:25:53.562Z,29.50
2018-03-20T07:26:53.555Z,30.40
2018-03-20T07:27:53.563Z,24.40
2018-03-20T07:28:53.583Z,30.10
2018-03-20T07:29:53.586Z,29.50
2018-03-20T07:30:53.642Z,27.60
2018-03-20T07:31:53.615Z,30.80
2018-03-20T07:32:53.654Z,28.30
2018-03-20T07:33:53.664Z,26.60
2018-03-20T07:34:53.666Z,31.90
2018-03-20T07:35:53.659Z,35.50
2018-03-20T07:36:53.696Z,31.90
2018-03-20T07:37:53.686Z,34.10
2018-03-20T07:38:53.729Z,32.80
2018-03-20T07:39:53.757Z,39.90
2018-03-20T07:40:53.735Z,32.40
2018-03-20T07:41:53.736Z,34.80
2018-03-20T07:42:53.759Z,34.80
2018-03-20T07:43:53.778Z,29.40
2018-03-20T07:44:53.783Z,36.10
2018-03-20T07:45:53.786Z,29.80
2018-03-20T07:46:53.793Z,35.80
2018-03-20T07:47:53.813Z,35.00
2018-03-20T07:48:53.823Z,33.70
2018-03-20T07:49:53.857Z,38.70
2018-03-20T07:50:53.853Z,32.60
2018-03-20T07:51:53.856Z,36.00
2018-03-20T07:52:53.877Z,34.70
2018-03-20T07:53:53.890Z,32.50
2018-03-20T07:54:53.928Z,31.20
2018-03-20T07:55:53.908Z,31.40
2018-03-20T07:56:53.930Z,33.80
2018-03-20T07:57:53.947Z,29.40
2018-03-20T07:58:53.952Z,28.60
2018-03-20T07:59:54.002Z,30.40
2018-03-20T08:00:53.970Z,31.00
2018-03-20T08:01:53.986Z,27.70
2018-03-20T08:02:54.019Z,26.30
2018-03-20T08:03:54.012Z,30.40
2018-03-20T08:04:54.045Z,29.60
2018-03-20T08:05:54.050Z,28.60
2018-03-20T08:06:54.055Z,29.20
2018-03-20T08:07:54.072Z,30.60
2018-03-20T08:08:54.088Z,28.00
2018-03-20T08:09:54.116Z,27.70
2018-03-20T08:10:54.090Z,30.10
2018-03-20T08:11:54.100Z,30.50
2018-03-20T08:12:54.130Z,26.30
2018-03-20T08:13:54.130Z,27.70
2018-03-20T08:14:54.143Z,28.50
2018-03-20T08:15:54.155Z,30.30
2018-03-20T08:16:54.169Z,32.20
2018-03-20T08:17:54.173Z,28.70
2018-03-20T08:18:54.191Z,30.50
2018-03-20T08:19:54.203Z,30.60
2018-03-20T08:20:54.217Z,30.00
2018-03-20T08:21:54.225Z,32.90
2018-03-20T08:22:54.238Z,31.50
2018-03-20T08:23:54.262Z,30.10
2018-03-20T08:24:54.287Z,25.30
2018-03-20T08:25:54.280Z,27.90
2018-03-20T08:26:54.309Z,25.70
2018-03-20T08:27:54.318Z,28.40
2018-03-20T08:28:54.327Z,28.50
2018-03-20T08:29:54.330Z,28.20
2018-03-20T08:30:54.345Z,27.80
2018-03-20T08:31:54.347Z,27.00
2018-03-20T08:32:54.362Z,29.40
2018-03-20T08:33:54.374Z,25.40
2018-03-20T08:34:54.402Z,22.10
2018-03-20T08:35:54.420Z,24.00
2018-03-20T08:36:54.424Z,23.30
2018-03-20T08:37:54.431Z,21.00
2018-03-20T08:38:54.439Z,19.00
2018-03-20T08:39:54.475Z,22.10
2018-03-20T08:40:54.472Z,19.70
2018-03-20T08:41:54.506Z,20.70
2018-03-20T08:42:54.517Z,16.80
2018-03-20T08:43:54.514Z,20.60
2018-03-20T08:44:54.520Z,18.30
2018-03-20T08:45:54.536Z,15.60
2018-03-20T08:46:54.560Z,14.70
2018-03-20T08:47:54.560Z,22.80
2018-03-20T08:48:54.579Z,21.90
2018-03-20T08:49:54.633Z,18.90
2018-03-20T08:50:54.587Z,19.40
2018-03-20T08:51:54.610Z,17.80
2018-03-20T08:52:54.613Z,22.10
2018-03-20T08:53:54.645Z,21.50
2018-03-20T08:54:54.666Z,24.00
2018-03-20T08:55:54.670Z,28.80
2018-03-20T08:56:54.683Z,27.70
2018-03-20T08:57:54.678Z,25.40
2018-03-20T08:58:54.715Z,24.50
2018-03-20T08:59:54.710Z,19.90
2018-03-20T09:00:54.726Z,16.50
2018-03-20T09:01:54.726Z,22.40
2018-03-20T09:02:54.750Z,20.30
2018-03-20T09:03:54.755Z,22.80
2018-03-20T09:04:54.772Z,17.90
2018-03-20T09:05:54.794Z,22.30
2018-03-20T09:06:54.795Z,17.30
2018-03-20T09:07:54.816Z,24.70
2018-03-20T09:08:54.823Z,19.20
2018-03-20T09:09:54.827Z,24.60
2018-03-20T09:10:54.861Z,20.80
2018-03-20T09:11:54.879Z,22.30
2018-03-20T09:12:54.870Z,21.30
2018-03-20T09:13:54.887Z,19.50
2018-03-20T09:14:54.895Z,15.80
2018-03-20T09:15:54.905Z,18.30
2018-03-20T09:16:54.919Z,16.40
2018-03-20T09:17:54.942Z,17.80
2018-03-20T09:18:54.948Z,12.90
2018-03-20T09:19:55.003Z,15.60
2018-03-20T09:20:54.982Z,15.10
2018-03-20T09:21:55.004Z,10.70
2018-03-20T09:22:54.996Z,16.50
2018-03-20T09:23:55.078Z,12.30
2018-03-20T09:24:55.019Z,13.30
2018-03-20T09:25:55.035Z,10.80
2018-03-20T09:26:55.063Z,11.00
2018-03-20T09:27:55.056Z,13.00
2018-03-20T09:28:55.075Z,13.80
2018-03-20T09:29:55.161Z,12.80
2018-03-20T09:30:55.113Z,13.70
2018-03-20T09:31:55.123Z,9.60
2018-03-20T09:32:55.150Z,8.90
2018-03-20T09:33:55.154Z,10.90
2018-03-20T09:34:55.162Z,12.40
2018-03-20T09:35:55.161Z,12.10
2018-03-20T09:36:55.209Z,12.40
2018-03-20T09:37:55.234Z,10.90
2018-03-20T09:38:55.230Z,7.10
2018-03-20T09:39:55.221Z,8.50
2018-03-20T09:40:55.232Z,9.90
2018-03-20T09:41:55.252Z,9.60
2018-03-20T09:42:55.280Z,8.30
2018-03-20T09:43:55.316Z,8.80
2018-03-20T09:44:55.288Z,8.30
2018-03-20T09:45:55.320Z,5.70
2018-03-20T09:46:55.323Z,8.80
2018-03-20T09:47:55.361Z,8.00
2018-03-20T09:48:55.348Z,6.80
2018-03-20T09:49:55.371Z,8.00
2018-03-20T09:50:55.379Z,6.90
2018-03-20T09:51:55.400Z,6.50
2018-03-20T09:52:55.405Z,7.90
2018-03-20T09:53:55.416Z,6.10
2018-03-20T09:54:55.440Z,5.90
2018-03-20T09:55:55.451Z,7.00
2018-03-20T09:56:55.466Z,5.20
2018-03-20T09:57:55.489Z,5.90
2018-03-20T09:58:55.508Z,6.40
2018-03-20T09:59:55.520Z,8.00
2018-03-20T10:00:55.533Z,6.50
2018-03-20T10:01:55.558Z,6.70
2018-03-20T10:02:55.555Z,6.40
2018-03-20T10:03:55.581Z,6.30
2018-03-20T10:04:55.604Z,6.00
2018-03-20T10:05:55.594Z,6.50
2018-03-20T10:06:55.627Z,7.80
2018-03-20T10:07:55.653Z,7.70
2018-03-20T10:08:55.643Z,7.80
2018-03-20T10:09:55.675Z,5.20
2018-03-20T10:10:55.686Z,11.90
2018-03-20T10:11:55.694Z,6.40
2018-03-20T10:12:55.729Z,7.50
2018-03-20T10:13:55.717Z,11.00
2018-03-20T10:14:55.732Z,10.10
2018-03-20T10:15:55.747Z,9.30
2018-03-20T10:16:55.800Z,5.70
2018-03-20T10:17:55.783Z,6.70
2018-03-20T10:18:55.810Z,6.80
2018-03-20T10:19:55.812Z,9.50
2018-03-20T10:20:55.818Z,4.70
2018-03-20T10:21:55.838Z,5.80
2018-03-20T10:22:55.857Z,5.20
2018-03-20T10:23:55.875Z,6.10
2018-03-20T10:24:55.900Z,5.80
2018-03-20T10:25:55.897Z,6.40
2018-03-20T10:26:55.910Z,6.00
2018-03-20T10:27:55.942Z,8.90
2018-03-20T10:28:55.968Z,6.00
2018-03-20T10:29:55.946Z,5.60
2018-03-20T10:30:55.968Z,7.90
2018-03-20T10:31:55.977Z,4.60
2018-03-20T10:32:56.016Z,8.40
2018-03-20T10:33:56.013Z,5.50
2018-03-20T10:34:56.026Z,5.80
2018-03-20T10:35:56.073Z,5.50
2018-03-20T10:36:56.066Z,6.90
2018-03-20T10:37:56.075Z,5.80
2018-03-20T10:38:56.092Z,5.70
2018-03-20T10:39:56.100Z,6.30
2018-03-20T10:40:56.141Z,5.70
2018-03-20T10:41:56.157Z,5.80
2018-03-20T10:42:56.173Z,5.90
2018-03-20T10:43:56.158Z,5.60
2018-03-20T10:44:56.174Z,5.80
2018-03-20T10:45:56.195Z,7.00
2018-03-20T10:46:56.204Z,6.30
2018-03-20T10:47:56.226Z,8.10
2018-03-20T10:48:56.236Z,6.00
2018-03-20T10:49:56.251Z,6.20
2018-03-20T10:50:56.292Z,5.10
2018-03-20T10:51:56.283Z,5.70
2018-03-20T10:52:56.317Z,8.70
2018-03-20T10:53:56.353Z,8.00
2018-03-20T10:54:56.345Z,8.70
2018-03-20T10:55:56.334Z,6.80
2018-03-20T10:56:56.400Z,9.30
2018-03-20T10:57:56.363Z,5.40
2018-03-20T10:58:56.398Z,8.50
2018-03-20T10:59:56.406Z,9.80
2018-03-20T11:00:56.448Z,8.40
2018-03-20T11:01:56.442Z,7.90
2018-03-20T11:02:56.459Z,5.60
2018-03-20T11:03:56.475Z,6.00
2018-03-20T11:04:56.479Z,5.90
2018-03-20T11:05:56.530Z,6.60
2018-03-20T11:06:56.504Z,8.40
2018-03-20T11:07:56.529Z,8.80
2018-03-20T11:08:56.552Z,7.00
2018-03-20T11:09:56.560Z,8.30
2018-03-20T11:10:56.567Z,5.60
2018-03-20T11:11:56.579Z,8.60
2018-03-20T11:12:56.595Z,12.30
2018-03-20T11:13:56.630Z,9.10
2018-03-20T11:14:56.658Z,8.30
2018-03-20T11:15:56.645Z,7.80
2018-03-20T11:16:56.673Z,13.00
2018-03-20T11:17:56.678Z,9.00
2018-03-20T11:18:56.689Z,6.80
2018-03-20T11:19:56.706Z,8.40
2018-03-20T11:20:56.725Z,8.20
2018-03-20T11:21:56.772Z,11.30
2018-03-20T11:22:56.779Z,7.40
2018-03-20T11:23:56.773Z,5.90
2018-03-20T11:24:56.780Z,5.50
2018-03-20T11:25:56.795Z,6.70
2018-03-20T11:26:56.839Z,5.70
2018-03-20T11:27:56.834Z,7.60
2018-03-20T11:28:56.868Z,8.20
2018-03-20T11:29:56.925Z,7.00
2018-03-20T11:30:56.879Z,5.70
2018-03-20T11:31:56.890Z,6.80
2018-03-20T11:32:56.906Z,5.70
2018-03-20T11:33:56.917Z,6.10
2018-03-20T11:34:56.944Z,5.30
2018-03-20T11:35:56.957Z,5.20
2018-03-20T11:36:56.967Z,6.90
2018-03-20T11:37:57.001Z,7.50
2018-03-20T11:38:57.035Z,8.40
2018-03-20T11:39:57.013Z,5.90
2018-03-20T11:40:57.023Z,9.10
2018-03-20T11:41:57.039Z,5.00
2018-03-20T11:42:57.053Z,6.30
2018-03-20T11:43:57.137Z,8.30
2018-03-20T11:44:57.109Z,8.30
2018-03-20T11:45:57.168Z,5.50
2018-03-20T11:46:57.148Z,5.60
2018-03-20T11:47:57.157Z,8.30
2018-03-20T11:48:57.152Z,8.50
2018-03-20T11:49:57.181Z,4.70
2018-03-20T11:50:57.188Z,7.90
2018-03-20T11:51:57.205Z,7.50
2018-03-20T11:52:57.227Z,7.20
2018-03-20T11:53:57.247Z,5.10
2018-03-20T11:54:57.260Z,4.50
2018-03-20T11:55:57.298Z,3.60
2018-03-20T11:56:57.296Z,6.40
2018-03-20T11:57:57.293Z,4.30
2018-03-20T11:58:57.327Z,4.50
2018-03-20T11:59:57.321Z,5.70
2018-03-20T12:00:57.338Z,4.30
2018-03-20T12:01:57.352Z,7.50
2018-03-20T12:02:57.369Z,6.00
2018-03-20T12:03:57.386Z,7.50
2018-03-20T12:04:57.405Z,6.00
2018-03-20T12:05:57.419Z,5.10
2018-03-20T12:06:57.428Z,13.00
2018-03-20T12:07:57.472Z,9.50
2018-03-20T12:08:57.505Z,11.90
2018-03-20T12:09:57.482Z,8.10
2018-03-20T12:10:57.501Z,10.40
2018-03-20T12:11:57.515Z,10.40
2018-03-20T12:12:57.559Z,4.80
2018-03-20T12:13:57.562Z,6.40
2018-03-20T12:14:57.559Z,13.70
2018-03-20T12:15:57.584Z,8.00
2018-03-20T12:16:57.592Z,5.20
2018-03-20T12:17:57.614Z,7.70
2018-03-20T12:18:57.618Z,5.90
2018-03-20T12:19:57.651Z,5.40
2018-03-20T12:20:57.646Z,5.70
2018-03-20T12:21:57.676Z,6.40
2018-03-20T12:22:57.683Z,6.80
2018-03-20T12:23:57.729Z,9.40
2018-03-20T12:24:57.708Z,4.90
2018-03-20T12:25:57.726Z,9.30
2018-03-20T12:26:57.742Z,9.40
2018-03-20T12:27:57.805Z,7.40
2018-03-20T12:28:57.770Z,10.80
2018-03-20T12:29:57.790Z,5.30
2018-03-20T12:30:57.879Z,6.40
2018-03-20T12:31:57.892Z,7.50
2018-03-20T12:32:57.858Z,12.00
2018-03-20T12:33:57.861Z,8.10
2018-03-20T12:34:57.887Z,9.90
2018-03-20T12:35:57.885Z,4.10
2018-03-20T12:36:57.905Z,6.50
2018-03-20T12:37:57.946Z,9.70
2018-03-20T12:38:57.937Z,6.70
2018-03-20T12:39:58.056Z,5.00
2018-03-20T12:40:58.001Z,5.70
2018-03-20T12:41:57.988Z,6.70
2018-03-20T12:42:58.049Z,5.90
2018-03-20T12:43:58.056Z,6.20
2018-03-20T12:44:58.104Z,5.20
2018-03-20T12:45:58.058Z,7.50
2018-03-20T12:46:58.078Z,4.90
2018-03-20T12:47:58.101Z,7.00
2018-03-20T12:48:58.158Z,7.30
2018-03-20T12:49:58.132Z,5.10
2018-03-20T12:50:58.152Z,5.30
2018-03-20T12:51:58.228Z,5.50
2018-03-20T12:52:58.160Z,4.70
2018-03-20T12:53:58.202Z,5.40
2018-03-20T12:54:58.216Z,6.20
2018-03-20T12:55:58.218Z,7.10
2018-03-20T12:56:58.241Z,6.80
2018-03-20T12:57:58.243Z,4.80
2018-03-20T12:58:58.266Z,6.10